Time;durP1;ratioP1;P1;durP2;ratioP2;P2;SDS_P1;SDS_P2;PMS_P1;PMS_P2;Temp;Humidity;BMP_temperature;BMP_pressure;BME280_temperature;BME280_humidity;BME280_pressure;Samples;Min_cycle;Max_cycle;Signal;HPM_P1;HPM_P2
2023/05/26 00:09:32;;;;;;;15.40;14.00;;;;;;;15.32;74.07;101001.52;214161;1263;74064;-72
2023/05/26 00:21:12;;;;;;;11.90;10.80;;;;;;;15.38;73.59;101008.16;216827;1260;62136;-73
2023/05/26 00:27:08;;;;;;;11.70;10.70;;;;;;;15.40;73.31;101010.61;215624;1262;65831;-73
2023/05/26 00:32:55;;;;;;;12.70;11.40;;;;;;;15.40;73.11;101005.55;214517;1262;60557;-72
2023/05/26 00:38:15;;;;;;;10.80;9.70;;;;;;;15.39;72.71;101008.16;214529;1261;74856;-72
2023/05/26 00:43:09;;;;;;;11.10;10.00;;;;;;;15.37;72.53;101012.52;214784;1262;72732;-72
2023/05/26 00:48:02;;;;;;;9.80;9.00;;;;;;;15.36;72.54;101014.27;214744;1262;60452;-72
2023/05/26 00:52:56;;;;;;;9.30;8.50;;;;;;;15.34;72.42;101010.42;214754;1260;64860;-72
2023/05/26 00:57:50;;;;;;;10.00;8.70;;;;;;;15.33;72.29;101012.34;215186;1256;60509;-72
2023/05/26 01:02:46;;;;;;;9.10;8.10;;;;;;;15.31;72.04;101010.06;215521;1259;73522;-72
2023/05/26 01:07:41;;;;;;;9.20;8.30;;;;;;;15.29;71.91;101009.19;215195;1258;71429;-72
2023/05/26 01:12:49;;;;;;;10.00;9.00;;;;;;;15.28;71.98;101007.09;215218;1259;60495;-72
2023/05/26 01:17:52;;;;;;;7.50;6.90;;;;;;;15.25;72.03;101010.40;215478;1256;66513;-72
2023/05/26 01:22:50;;;;;;;8.60;7.70;;;;;;;15.16;72.05;101009.68;215374;1256;60460;-72
2023/05/26 01:27:52;;;;;;;;;;;;;;;15.13;71.91;101012.64;215425;1259;73532;-72
2023/05/26 01:32:49;;;;;;;8.30;7.40;;;;;;;15.11;71.87;101014.38;215463;1259;72558;-72
2023/05/26 01:37:45;;;;;;;8.30;7.50;;;;;;;15.12;71.95;101014.91;215566;1256;60558;-72
2023/05/26 01:42:42;;;;;;;9.10;7.30;;;;;;;15.11;71.92;101022.92;215500;1259;67045;-72
2023/05/26 01:47:37;;;;;;;7.90;7.10;;;;;;;15.09;72.03;101023.10;215315;1259;60438;-72
2023/05/26 01:52:31;;;;;;;6.80;6.30;;;;;;;15.05;72.11;101025.19;215311;1256;73432;-72
2023/05/26 01:57:26;;;;;;;8.50;7.30;;;;;;;15.04;72.41;101022.91;215219;1259;72315;-72
2023/05/26 02:02:21;;;;;;;8.20;6.80;;;;;;;15.02;72.02;101027.27;215288;1256;60530;-72
2023/05/26 02:07:14;;;;;;;7.10;6.50;;;;;;;14.98;71.92;101023.23;215551;1255;60569;-72
2023/05/26 02:12:07;;;;;;;8.10;7.40;;;;;;;14.92;72.14;101028.27;215558;1255;60458;-72
2023/05/26 02:17:00;;;;;;;7.50;6.70;;;;;;;14.81;72.25;101031.20;215643;1256;74249;-72
2023/05/26 02:21:53;;;;;;;10.00;8.00;;;;;;;14.71;72.22;101029.74;215566;1257;60767;-72
2023/05/26 02:26:46;;;;;;;7.50;6.80;;;;;;;14.64;72.54;101034.78;215580;1257;60447;-72
2023/05/26 02:31:39;;;;;;;8.40;7.20;;;;;;;14.59;72.54;101039.09;215602;1257;62674;-72
2023/05/26 02:36:36;;;;;;;7.60;6.80;;;;;;;14.52;72.66;101037.82;215538;1256;60521;-72
2023/05/26 02:41:28;;;;;;;8.60;7.30;;;;;;;14.48;72.74;101034.48;215650;1256;72571;-72
2023/05/26 02:46:27;;;;;;;8.10;7.40;;;;;;;14.44;73.14;101032.72;215560;1259;60586;-72
2023/05/26 02:51:22;;;;;;;7.70;7.00;;;;;;;14.44;73.18;101042.83;215643;1255;60302;-72
2023/05/26 02:56:15;;;;;;;7.50;6.70;;;;;;;14.43;73.22;101042.82;215589;1254;60476;-72
2023/05/26 03:01:09;;;;;;;9.40;8.20;;;;;;;14.44;73.36;101043.17;215566;1257;60777;-72
2023/05/26 03:06:02;;;;;;;9.00;8.10;;;;;;;14.46;73.69;101045.10;215502;1259;60489;-72
2023/05/26 03:10:56;;;;;;;9.00;8.30;;;;;;;14.48;73.69;101043.55;215449;1257;72690;-72
2023/05/26 03:16:05;;;;;;;8.30;7.00;;;;;;;14.54;73.62;101042.88;215544;1256;60495;-72
2023/05/26 03:20:59;;;;;;;9.10;8.20;;;;;;;14.60;73.55;101035.79;215572;1255;67514;-72
2023/05/26 03:25:53;;;;;;;9.10;7.60;;;;;;;14.65;73.53;101029.89;215460;1259;60445;-72
2023/05/26 03:30:47;;;;;;;14.10;8.80;;;;;;;14.73;73.32;101030.11;215558;1256;72323;-72
2023/05/26 03:35:44;;;;;;;9.20;7.50;;;;;;;14.81;73.05;101031.02;215249;1256;71581;-72
2023/05/26 03:40:38;;;;;;;7.50;6.70;;;;;;;14.92;72.81;101033.68;215547;1256;60451;-72
2023/05/26 03:45:34;;;;;;;7.10;6.20;;;;;;;15.01;71.99;101035.64;215315;1259;66286;-72
2023/05/26 03:50:27;;;;;;;6.40;5.40;;;;;;;15.10;71.79;101047.73;215416;1256;60452;-72
2023/05/26 03:55:20;;;;;;;7.00;5.90;;;;;;;15.16;71.89;101057.70;215413;1256;60521;-72
2023/05/26 04:00:14;;;;;;;6.10;5.50;;;;;;;15.17;71.60;101057.17;215305;1259;72134;-72
2023/05/26 04:05:10;;;;;;;5.90;5.30;;;;;;;15.18;71.16;101060.50;215511;1256;60456;-72
2023/05/26 04:10:05;;;;;;;6.70;5.50;;;;;;;15.23;71.16;101062.62;215458;1256;67912;-72
2023/05/26 04:15:01;;;;;;;5.70;4.90;;;;;;;15.32;70.83;101065.78;215577;1256;60463;-72
2023/05/26 04:19:54;;;;;;;7.20;4.90;;;;;;;15.41;70.47;101072.44;215581;1257;60492;-73
2023/05/26 04:24:47;;;;;;;6.60;4.60;;;;;;;15.56;70.27;101073.35;215684;1257;72423;-73
2023/05/26 04:29:45;;;;;;;6.90;4.70;;;;;;;15.67;69.73;101070.05;215476;1259;60430;-72
2023/05/26 04:35:15;;;;;;;6.00;5.20;;;;;;;15.72;69.17;101066.22;214664;1264;65684;-72
2023/05/26 04:40:11;;;;;;;6.20;4.70;;;;;;;15.81;68.55;101069.23;215497;1256;60465;-72
2023/05/26 04:45:05;;;;;;;6.40;4.50;;;;;;;15.88;68.15;101072.21;215502;1255;73538;-72
2023/05/26 04:50:00;;;;;;;7.20;4.50;;;;;;;15.97;68.27;101073.79;215313;1256;74618;-72
2023/05/26 04:54:56;;;;;;;6.60;4.10;;;;;;;16.00;67.42;101076.23;215480;1256;60511;-72
2023/05/26 04:59:50;;;;;;;6.50;4.30;;;;;;;16.10;67.42;101077.63;215508;1257;64869;-72
2023/05/26 05:04:45;;;;;;;7.90;4.90;;;;;;;16.22;67.22;101077.98;215617;1255;60527;-72
2023/05/26 05:09:40;;;;;;;;;;;;;;;16.33;67.37;101079.20;215462;1256;73659;-73
2023/05/26 05:14:36;;;;;;;7.10;4.30;;;;;;;16.43;66.98;101077.61;215556;1259;73574;-72
2023/05/26 05:19:31;;;;;;;5.40;3.90;;;;;;;16.53;65.96;101077.08;215491;1257;61713;-73
2023/05/26 05:24:24;;;;;;;7.10;4.20;;;;;;;16.67;65.32;101074.06;215532;1259;66574;-72
2023/05/26 05:29:19;;;;;;;6.50;3.80;;;;;;;16.87;64.76;101066.50;215680;1258;60466;-72
2023/05/26 05:34:15;;;;;;;6.70;4.40;;;;;;;16.93;64.35;101069.98;215663;1257;74836;-72
2023/05/26 05:39:09;;;;;;;9.00;4.80;;;;;;;16.93;63.98;101066.32;215522;1257;71280;-72
2023/05/26 05:44:42;;;;;;;6.60;4.00;;;;;;;17.02;64.37;101065.93;215580;1258;61050;-73
2023/05/26 05:50:09;;;;;;;5.90;4.20;;;;;;;17.21;63.56;101066.73;215597;1256;68539;-72
2023/05/26 06:01:31;;;;;;;5.40;4.30;;;;;;;17.49;63.15;101070.95;215406;1259;72796;-73
2023/05/26 06:06:26;;;;;;;5.40;4.80;;;;;;;17.69;62.76;101074.33;215338;1257;73233;-73
2023/05/26 06:29:16;;;;;;;8.30;4.20;;;;;;;19.08;59.80;101076.77;214278;1262;73276;-72
2023/05/26 06:34:21;;;;;;;6.30;3.80;;;;;;;19.27;59.68;101081.42;214546;1264;72814;-73
2023/05/26 07:09:22;;;;;;;6.90;4.50;;;;;;;21.15;55.50;101081.81;214044;1267;60511;-73
2023/05/26 07:14:46;;;;;;;6.70;4.20;;;;;;;21.83;54.63;101081.54;213871;1269;66447;-73
2023/05/26 07:20:08;;;;;;;8.40;4.60;;;;;;;21.96;53.77;101080.52;214557;1266;60527;-73
2023/05/26 07:25:35;;;;;;;8.50;4.50;;;;;;;21.72;54.37;101081.63;214874;1260;75338;-73
2023/05/26 07:31:01;;;;;;;7.10;4.20;;;;;;;22.06;53.31;101082.73;215615;1260;72594;-72
2023/05/26 07:42:00;;;;;;;10.60;4.90;;;;;;;24.69;50.11;101082.39;215641;1263;65551;-74
2023/05/26 07:47:31;;;;;;;5.60;4.90;;;;;;;26.86;47.48;101075.00;217204;1260;58915;-74
2023/05/26 07:53:26;;;;;;;;;;;;;;;;;;;;;
2023/05/26 08:04:49;;;;;;;7.50;4.40;;;;;;;27.69;42.98;101081.29;213681;1273;60446;-74
2023/05/26 08:09:49;;;;;;;9.10;5.10;;;;;;;28.57;42.16;101082.40;213658;1270;67445;-74
2023/05/26 08:14:42;;;;;;;7.70;5.20;;;;;;;29.62;41.20;101075.64;213644;1274;60613;-74
2023/05/26 08:19:36;;;;;;;7.30;5.50;;;;;;;30.18;39.90;101078.11;213980;1270;74876;-74
2023/05/26 08:24:32;;;;;;;7.90;5.00;;;;;;;28.79;40.82;101084.20;214021;1267;71381;-74
2023/05/26 08:35:10;;;;;;;10.80;5.40;;;;;;;27.20;41.63;101084.98;213839;1262;66788;-73
2023/05/26 08:40:17;;;;;;;;;;;;;;;;;;;;;
2023/05/26 08:46:31;;;;;;;4.50;4.10;;;;;;;24.96;43.75;101088.05;215271;1257;74585;-73
2023/05/26 08:53:07;;;;;;;6.10;4.60;;;;;;;23.88;44.94;101080.43;214684;1263;72021;-73
2023/05/26 09:05:51;;;;;;;6.60;4.80;;;;;;;23.85;45.18;101088.68;213267;1273;68456;-72
2023/05/26 10:53:36;;;;;;;;;;;;;;;;;;;;;
2023/05/26 12:11:32;;;;;;;;;;;;;;;;;;;;;
2023/05/26 12:31:10;;;;;;;10.60;4.60;;;;;;;26.71;35.25;101006.02;215505;1263;59761;-74
2023/05/26 12:57:11;;;;;;;6.70;4.10;;;;;;;26.52;35.49;100989.92;220742;1235;74109;-75
2023/05/26 13:10:15;;;;;;;6.30;3.50;;;;;;;26.26;35.79;100985.77;216254;1261;67600;-74
2023/05/26 13:36:51;;;;;;;;;;;;;;;;;;;;;
2023/05/26 14:29:41;;;;;;;;;;;;;;;;;;;;;
2023/05/26 18:06:19;;;;;;;6.80;3.00;;;;;;;20.45;37.89;101020.99;216155;1261;65885;-75
2023/05/26 18:19:48;;;;;;;;;;;;;;;;;;;;;
2023/05/26 18:37:32;;;;;;;;;;;;;;;;;;;;;
2023/05/26 18:49:10;;;;;;;7.00;2.80;;;;;;;18.94;39.01;101076.73;216871;1254;72976;-73
2023/05/26 18:54:51;;;;;;;6.10;2.80;;;;;;;18.77;38.01;101088.70;218714;1241;73967;-74
2023/05/26 19:06:15;;;;;;;6.30;3.40;;;;;;;18.41;36.54;101111.86;219717;1244;66189;-74
2023/05/26 19:11:43;;;;;;;5.70;3.00;;;;;;;18.24;35.82;101117.80;220069;1241;59776;-73
2023/05/26 19:22:55;;;;;;;5.40;2.70;;;;;;;17.91;35.29;101134.89;220801;1236;73897;-74
2023/05/26 19:28:37;;;;;;;9.00;2.80;;;;;;;17.72;35.00;101139.88;221086;1235;60579;-74
2023/05/26 19:34:37;;;;;;;5.60;3.00;;;;;;;17.53;34.89;101146.81;220928;1236;67028;-74
2023/05/26 19:40:15;;;;;;;7.00;3.00;;;;;;;17.38;35.00;101158.10;221071;1234;59774;-74
2023/05/26 19:45:22;;;;;;;7.80;3.30;;;;;;;17.19;35.00;101160.63;220921;1236;72095;-74
2023/05/26 19:50:44;;;;;;;10.00;3.50;;;;;;;17.07;35.29;101167.66;221040;1238;74850;-74
2023/05/26 19:56:19;;;;;;;10.00;3.70;;;;;;;16.89;35.61;101176.10;221090;1235;61076;-74
2023/05/26 20:02:10;;;;;;;11.30;3.50;;;;;;;16.72;36.03;101187.47;220739;1235;68034;-74
2023/05/26 20:07:35;;;;;;;8.40;3.50;;;;;;;16.56;36.21;101198.50;221001;1235;59629;-74
2023/05/26 20:12:45;;;;;;;7.40;3.50;;;;;;;16.40;36.58;101204.62;220934;1235;72756;-74
2023/05/26 20:18:25;;;;;;;10.40;3.60;;;;;;;16.26;37.10;101214.77;220886;1237;72732;-74
2023/05/26 20:30:20;;;;;;;10.80;4.40;;;;;;;16.01;38.06;101230.98;223338;1235;67770;-74
2023/05/26 20:36:00;;;;;;;13.30;4.00;;;;;;;15.91;38.63;101241.24;220715;1239;59663;-74
2023/05/26 20:41:43;;;;;;;6.00;2.90;;;;;;;15.79;39.25;101249.23;220942;1239;74710;-78
2023/05/26 20:47:12;;;;;;;8.30;3.60;;;;;;;15.53;40.18;101252.23;220217;1240;74457;-74
2023/05/26 20:52:54;;;;;;;11.30;3.70;;;;;;;15.33;40.87;101263.14;220024;1243;61233;-74
2023/05/26 20:58:17;;;;;;;13.60;3.60;;;;;;;15.17;40.90;101264.96;220524;1240;66309;-74
2023/05/26 21:16:03;;;;;;;9.50;3.40;;;;;;;14.76;42.00;101279.66;219675;1246;72380;-74
2023/05/26 21:38:19;;;;;;;10.30;4.30;;;;;;;14.25;44.01;101288.73;218177;1251;74198;-75
2023/05/26 21:43:14;;;;;;;11.20;5.00;;;;;;;14.12;44.74;101292.05;218401;1247;74830;-74
2023/05/26 21:48:06;;;;;;;10.30;3.80;;;;;;;14.00;44.45;101294.37;219082;1247;60451;-73
2023/05/26 21:52:58;;;;;;;10.70;4.50;;;;;;;13.91;44.93;101293.72;219165;1247;60531;-74
2023/05/26 21:57:50;;;;;;;11.80;4.90;;;;;;;13.89;44.50;101298.23;219585;1244;61366;-75
2023/05/26 22:02:48;;;;;;;10.20;3.50;;;;;;;13.83;45.02;101297.80;220135;1240;67346;-73
2023/05/26 22:07:39;;;;;;;6.50;3.10;;;;;;;13.70;45.87;101299.55;220157;1240;60504;-74
2023/05/26 22:12:40;;;;;;;9.10;3.60;;;;;;;13.56;45.88;101305.81;220220;1236;60558;-73
2023/05/26 22:17:38;;;;;;;10.80;3.50;;;;;;;13.47;46.04;101311.95;221143;1235;60433;-74
2023/05/26 22:22:43;;;;;;;11.50;3.90;;;;;;;13.36;45.97;101314.41;220907;1236;73703;-73
2023/05/26 22:27:43;;;;;;;11.90;3.60;;;;;;;13.30;46.20;101317.44;220968;1235;72677;-74
2023/05/26 22:32:47;;;;;;;11.10;3.80;;;;;;;13.19;46.56;101319.33;221130;1235;60946;-73
2023/05/26 22:37:47;;;;;;;12.30;3.80;;;;;;;13.10;46.51;101327.88;220969;1239;182642;-74
2023/05/26 22:42:39;;;;;;;8.60;2.90;;;;;;;13.06;46.70;101332.86;220923;1239;60376;-73
2023/05/26 22:47:46;;;;;;;10.90;3.80;;;;;;;12.96;47.09;101329.73;220932;1235;75658;-73
2023/05/26 22:52:42;;;;;;;9.10;3.10;;;;;;;12.85;47.91;101334.25;221101;1236;73598;-73
2023/05/26 22:57:41;;;;;;;9.60;2.70;;;;;;;12.70;47.74;101338.85;221163;1235;60650;-73
2023/05/26 23:03:16;;;;;;;;;;;;;;;;;;;;;
2023/05/26 23:09:06;;;;;;;11.20;3.50;;;;;;;12.36;49.09;101351.42;220811;1239;60644;-74
2023/05/26 23:20:35;;;;;;;7.70;3.10;;;;;;;12.07;49.25;101362.48;220922;1235;72638;-73
2023/05/26 23:25:57;;;;;;;11.90;3.90;;;;;;;12.00;49.45;101361.11;220996;1236;60644;-73
2023/05/26 23:30:58;;;;;;;10.80;4.80;;;;;;;11.95;50.03;101357.54;221001;1236;65514;-73
2023/05/26 23:35:52;;;;;;;9.00;2.90;;;;;;;11.92;50.01;101361.27;221070;1239;60541;-72
2023/05/26 23:40:43;;;;;;;11.20;3.80;;;;;;;11.83;50.89;101366.29;221148;1239;73498;-73
2023/05/26 23:45:38;;;;;;;8.40;3.30;;;;;;;11.70;51.28;101369.80;221169;1235;60447;-73
2023/05/26 23:50:43;;;;;;;11.00;3.40;;;;;;;11.59;51.32;101372.16;221184;1237;60536;-73
2023/05/26 23:55:55;;;;;;;10.50;3.30;;;;;;;11.52;52.01;101370.79;221203;1235;67416;-73
